sensor_id;sensor_type;location;lat;lon;timestamp;temperature;humidity
62583;DHT22;48641;51.676;5.808;2023-11-19T00:00:09;14.60;67.80
62583;DHT22;48641;51.676;5.808;2023-11-19T00:02:38;14.60;67.80
62583;DHT22;48641;51.676;5.808;2023-11-19T00:05:05;14.60;67.90
62583;DHT22;48641;51.676;5.808;2023-11-19T00:07:36;14.60;67.90
62583;DHT22;48641;51.676;5.808;2023-11-19T00:10:03;14.60;67.90
62583;DHT22;48641;51.676;5.808;2023-11-19T00:12:32;14.60;68.00
62583;DHT22;48641;51.676;5.808;2023-11-19T00:14:57;14.60;68.10
62583;DHT22;48641;51.676;5.808;2023-11-19T00:17:23;14.60;68.10
62583;DHT22;48641;51.676;5.808;2023-11-19T00:19:49;14.60;68.10
62583;DHT22;48641;51.676;5.808;2023-11-19T00:22:16;14.60;68.20
62583;DHT22;48641;51.676;5.808;2023-11-19T00:24:42;14.60;68.10
62583;DHT22;48641;51.676;5.808;2023-11-19T00:27:08;14.60;68.00
62583;DHT22;48641;51.676;5.808;2023-11-19T00:29:33;14.60;68.00
62583;DHT22;48641;51.676;5.808;2023-11-19T00:31:59;14.60;68.00
62583;DHT22;48641;51.676;5.808;2023-11-19T00:34:24;14.60;68.00
62583;DHT22;48641;51.676;5.808;2023-11-19T00:36:50;14.60;68.00
62583;DHT22;48641;51.676;5.808;2023-11-19T00:39:24;14.60;68.10
62583;DHT22;48641;51.676;5.808;2023-11-19T00:41:50;14.60;68.00
62583;DHT22;48641;51.676;5.808;2023-11-19T00:44:16;14.60;68.00
62583;DHT22;48641;51.676;5.808;2023-11-19T00:46:41;14.60;68.10
62583;DHT22;48641;51.676;5.808;2023-11-19T00:49:07;14.60;68.10
62583;DHT22;48641;51.676;5.808;2023-11-19T00:51:32;14.60;68.10
62583;DHT22;48641;51.676;5.808;2023-11-19T00:53:58;14.60;68.20
62583;DHT22;48641;51.676;5.808;2023-11-19T00:56:24;14.60;68.40
62583;DHT22;48641;51.676;5.808;2023-11-19T00:58:50;14.60;68.30
62583;DHT22;48641;51.676;5.808;2023-11-19T01:01:15;14.70;68.40
62583;DHT22;48641;51.676;5.808;2023-11-19T01:03:41;14.60;68.40
62583;DHT22;48641;51.676;5.808;2023-11-19T01:06:07;14.70;68.40
62583;DHT22;48641;51.676;5.808;2023-11-19T01:08:33;14.60;68.30
62583;DHT22;48641;51.676;5.808;2023-11-19T01:11:01;14.60;68.30
62583;DHT22;48641;51.676;5.808;2023-11-19T01:13:27;14.70;68.40
62583;DHT22;48641;51.676;5.808;2023-11-19T01:15:53;14.60;68.20
62583;DHT22;48641;51.676;5.808;2023-11-19T01:18:18;14.70;68.40
62583;DHT22;48641;51.676;5.808;2023-11-19T01:20:44;14.70;68.40
62583;DHT22;48641;51.676;5.808;2023-11-19T01:23:09;14.70;68.30
62583;DHT22;48641;51.676;5.808;2023-11-19T01:25:35;14.60;68.20
62583;DHT22;48641;51.676;5.808;2023-11-19T01:28:01;14.70;68.30
62583;DHT22;48641;51.676;5.808;2023-11-19T01:30:28;14.70;68.40
62583;DHT22;48641;51.676;5.808;2023-11-19T01:32:53;14.70;68.40
62583;DHT22;48641;51.676;5.808;2023-11-19T01:35:19;14.70;68.40
62583;DHT22;48641;51.676;5.808;2023-11-19T01:37:44;14.70;68.50
62583;DHT22;48641;51.676;5.808;2023-11-19T01:40:10;14.60;68.40
62583;DHT22;48641;51.676;5.808;2023-11-19T01:42:40;14.70;68.50
62583;DHT22;48641;51.676;5.808;2023-11-19T01:45:07;14.70;68.50
62583;DHT22;48641;51.676;5.808;2023-11-19T01:47:35;14.70;68.60
62583;DHT22;48641;51.676;5.808;2023-11-19T01:50:02;14.60;68.50
62583;DHT22;48641;51.676;5.808;2023-11-19T01:52:32;14.60;68.70
62583;DHT22;48641;51.676;5.808;2023-11-19T01:54:59;14.60;68.70
62583;DHT22;48641;51.676;5.808;2023-11-19T01:57:25;14.60;68.70
62583;DHT22;48641;51.676;5.808;2023-11-19T01:59:51;14.60;68.70
62583;DHT22;48641;51.676;5.808;2023-11-19T02:02:18;14.60;68.70
62583;DHT22;48641;51.676;5.808;2023-11-19T02:04:47;14.60;68.60
62583;DHT22;48641;51.676;5.808;2023-11-19T02:07:14;14.70;68.60
62583;DHT22;48641;51.676;5.808;2023-11-19T02:09:42;14.70;68.60
62583;DHT22;48641;51.676;5.808;2023-11-19T02:12:08;14.70;68.60
62583;DHT22;48641;51.676;5.808;2023-11-19T02:14:34;14.60;68.50
62583;DHT22;48641;51.676;5.808;2023-11-19T02:17:00;14.70;68.60
62583;DHT22;48641;51.676;5.808;2023-11-19T02:19:26;14.70;68.60
62583;DHT22;48641;51.676;5.808;2023-11-19T02:21:51;14.70;68.70
62583;DHT22;48641;51.676;5.808;2023-11-19T02:24:17;14.70;68.80
62583;DHT22;48641;51.676;5.808;2023-11-19T02:29:11;14.70;68.80
62583;DHT22;48641;51.676;5.808;2023-11-19T02:31:38;14.70;68.80
62583;DHT22;48641;51.676;5.808;2023-11-19T02:34:04;14.70;68.80
62583;DHT22;48641;51.676;5.808;2023-11-19T02:36:31;14.70;68.70
62583;DHT22;48641;51.676;5.808;2023-11-19T02:38:57;14.70;68.80
62583;DHT22;48641;51.676;5.808;2023-11-19T02:41:23;14.70;68.70
62583;DHT22;48641;51.676;5.808;2023-11-19T02:43:49;14.70;68.70
62583;DHT22;48641;51.676;5.808;2023-11-19T02:46:15;14.70;68.70
62583;DHT22;48641;51.676;5.808;2023-11-19T02:48:42;14.70;68.60
62583;DHT22;48641;51.676;5.808;2023-11-19T02:51:10;14.70;68.60
62583;DHT22;48641;51.676;5.808;2023-11-19T02:53:36;14.70;68.60
62583;DHT22;48641;51.676;5.808;2023-11-19T02:56:05;14.70;68.60
62583;DHT22;48641;51.676;5.808;2023-11-19T02:58:45;14.70;68.70
62583;DHT22;48641;51.676;5.808;2023-11-19T03:01:12;14.70;68.70
62583;DHT22;48641;51.676;5.808;2023-11-19T03:03:49;14.70;68.80
62583;DHT22;48641;51.676;5.808;2023-11-19T03:06:20;14.70;68.80
62583;DHT22;48641;51.676;5.808;2023-11-19T03:08:47;14.70;68.90
62583;DHT22;48641;51.676;5.808;2023-11-19T03:11:13;14.70;69.10
62583;DHT22;48641;51.676;5.808;2023-11-19T03:13:39;14.70;69.00
62583;DHT22;48641;51.676;5.808;2023-11-19T03:16:05;14.70;69.00
62583;DHT22;48641;51.676;5.808;2023-11-19T03:18:30;14.70;69.10
62583;DHT22;48641;51.676;5.808;2023-11-19T03:20:56;14.70;69.10
62583;DHT22;48641;51.676;5.808;2023-11-19T03:23:24;14.80;69.10
62583;DHT22;48641;51.676;5.808;2023-11-19T03:25:53;14.70;69.00
62583;DHT22;48641;51.676;5.808;2023-11-19T03:28:18;14.70;68.90
62583;DHT22;48641;51.676;5.808;2023-11-19T03:30:44;14.70;69.80
62583;DHT22;48641;51.676;5.808;2023-11-19T03:33:09;14.80;68.90
62583;DHT22;48641;51.676;5.808;2023-11-19T03:35:35;14.70;68.80
62583;DHT22;48641;51.676;5.808;2023-11-19T03:38:01;14.70;68.80
62583;DHT22;48641;51.676;5.808;2023-11-19T03:40:26;14.70;68.70
62583;DHT22;48641;51.676;5.808;2023-11-19T03:42:52;14.70;68.80
62583;DHT22;48641;51.676;5.808;2023-11-19T03:45:17;14.70;68.80
62583;DHT22;48641;51.676;5.808;2023-11-19T03:47:43;14.70;68.90
62583;DHT22;48641;51.676;5.808;2023-11-19T03:50:09;14.70;68.90
62583;DHT22;48641;51.676;5.808;2023-11-19T03:52:35;14.70;68.80
62583;DHT22;48641;51.676;5.808;2023-11-19T03:55:00;14.80;68.90
62583;DHT22;48641;51.676;5.808;2023-11-19T03:57:27;14.80;69.00
62583;DHT22;48641;51.676;5.808;2023-11-19T03:59:53;14.70;68.90
62583;DHT22;48641;51.676;5.808;2023-11-19T04:02:18;14.70;68.90
62583;DHT22;48641;51.676;5.808;2023-11-19T04:04:44;14.80;68.90
62583;DHT22;48641;51.676;5.808;2023-11-19T04:07:10;14.80;68.90
62583;DHT22;48641;51.676;5.808;2023-11-19T04:09:35;14.80;69.50
62583;DHT22;48641;51.676;5.808;2023-11-19T04:12:03;14.70;68.90
62583;DHT22;48641;51.676;5.808;2023-11-19T04:14:29;14.70;68.90
62583;DHT22;48641;51.676;5.808;2023-11-19T04:16:55;14.70;68.80
62583;DHT22;48641;51.676;5.808;2023-11-19T04:19:20;14.70;68.80
62583;DHT22;48641;51.676;5.808;2023-11-19T04:21:46;14.70;68.80
62583;DHT22;48641;51.676;5.808;2023-11-19T04:24:12;14.70;68.80
62583;DHT22;48641;51.676;5.808;2023-11-19T04:26:44;14.70;68.80
62583;DHT22;48641;51.676;5.808;2023-11-19T04:29:14;14.80;68.90
62583;DHT22;48641;51.676;5.808;2023-11-19T04:31:40;14.80;68.90
62583;DHT22;48641;51.676;5.808;2023-11-19T04:34:06;14.70;68.90
62583;DHT22;48641;51.676;5.808;2023-11-19T04:36:33;14.70;68.90
62583;DHT22;48641;51.676;5.808;2023-11-19T04:38:59;14.80;68.90
62583;DHT22;48641;51.676;5.808;2023-11-19T04:41:25;14.80;68.90
62583;DHT22;48641;51.676;5.808;2023-11-19T04:43:53;14.80;68.90
62583;DHT22;48641;51.676;5.808;2023-11-19T04:46:19;14.80;68.90
62583;DHT22;48641;51.676;5.808;2023-11-19T04:48:44;14.70;68.90
62583;DHT22;48641;51.676;5.808;2023-11-19T04:51:10;14.80;68.90
62583;DHT22;48641;51.676;5.808;2023-11-19T04:53:36;14.70;68.90
62583;DHT22;48641;51.676;5.808;2023-11-19T04:56:07;14.80;69.00
62583;DHT22;48641;51.676;5.808;2023-11-19T04:58:34;14.80;69.00
62583;DHT22;48641;51.676;5.808;2023-11-19T05:01:01;14.80;69.00
62583;DHT22;48641;51.676;5.808;2023-11-19T05:03:27;14.80;69.90
62583;DHT22;48641;51.676;5.808;2023-11-19T05:05:52;14.80;69.00
62583;DHT22;48641;51.676;5.808;2023-11-19T05:08:19;14.70;68.80
62583;DHT22;48641;51.676;5.808;2023-11-19T05:10:44;14.70;68.90
62583;DHT22;48641;51.676;5.808;2023-11-19T05:13:10;14.70;69.00
62583;DHT22;48641;51.676;5.808;2023-11-19T05:15:35;14.70;69.00
62583;DHT22;48641;51.676;5.808;2023-11-19T05:18:01;14.70;68.90
62583;DHT22;48641;51.676;5.808;2023-11-19T05:20:26;14.70;69.00
62583;DHT22;48641;51.676;5.808;2023-11-19T05:22:52;14.80;69.00
62583;DHT22;48641;51.676;5.808;2023-11-19T05:25:18;14.80;69.10
62583;DHT22;48641;51.676;5.808;2023-11-19T05:27:45;14.70;69.00
62583;DHT22;48641;51.676;5.808;2023-11-19T05:30:11;14.80;69.10
62583;DHT22;48641;51.676;5.808;2023-11-19T05:32:37;14.80;69.10
62583;DHT22;48641;51.676;5.808;2023-11-19T05:35:03;14.70;69.00
62583;DHT22;48641;51.676;5.808;2023-11-19T05:37:28;14.80;69.00
62583;DHT22;48641;51.676;5.808;2023-11-19T05:39:54;14.80;69.00
62583;DHT22;48641;51.676;5.808;2023-11-19T05:42:20;14.80;69.00
62583;DHT22;48641;51.676;5.808;2023-11-19T05:44:45;14.80;69.00
62583;DHT22;48641;51.676;5.808;2023-11-19T05:47:11;14.70;69.00
62583;DHT22;48641;51.676;5.808;2023-11-19T05:49:37;14.70;69.00
62583;DHT22;48641;51.676;5.808;2023-11-19T05:52:03;14.80;69.10
62583;DHT22;48641;51.676;5.808;2023-11-19T05:54:29;14.80;69.00
62583;DHT22;48641;51.676;5.808;2023-11-19T05:56:54;14.70;68.90
62583;DHT22;48641;51.676;5.808;2023-11-19T05:59:20;14.80;69.00
62583;DHT22;48641;51.676;5.808;2023-11-19T06:01:48;14.70;69.00
62583;DHT22;48641;51.676;5.808;2023-11-19T06:04:13;14.70;69.10
62583;DHT22;48641;51.676;5.808;2023-11-19T06:06:39;14.80;69.10
62583;DHT22;48641;51.676;5.808;2023-11-19T06:09:05;14.70;69.00
62583;DHT22;48641;51.676;5.808;2023-11-19T06:11:33;14.70;69.00
62583;DHT22;48641;51.676;5.808;2023-11-19T06:13:59;14.70;69.10
62583;DHT22;48641;51.676;5.808;2023-11-19T06:16:25;14.80;69.00
62583;DHT22;48641;51.676;5.808;2023-11-19T06:18:50;14.70;69.10
62583;DHT22;48641;51.676;5.808;2023-11-19T06:21:16;14.80;69.10
62583;DHT22;48641;51.676;5.808;2023-11-19T06:23:41;14.80;69.10
62583;DHT22;48641;51.676;5.808;2023-11-19T06:26:07;14.70;69.00
62583;DHT22;48641;51.676;5.808;2023-11-19T06:28:34;14.70;69.00
62583;DHT22;48641;51.676;5.808;2023-11-19T06:30:59;14.70;69.00
62583;DHT22;48641;51.676;5.808;2023-11-19T06:33:25;14.80;68.90
62583;DHT22;48641;51.676;5.808;2023-11-19T06:35:51;14.80;68.90
62583;DHT22;48641;51.676;5.808;2023-11-19T06:38:17;14.80;69.00
62583;DHT22;48641;51.676;5.808;2023-11-19T06:40:43;14.80;68.90
62583;DHT22;48641;51.676;5.808;2023-11-19T06:43:09;14.70;68.90
62583;DHT22;48641;51.676;5.808;2023-11-19T06:45:34;14.80;69.10
62583;DHT22;48641;51.676;5.808;2023-11-19T06:48:02;14.80;69.20
62583;DHT22;48641;51.676;5.808;2023-11-19T06:50:30;14.70;69.00
62583;DHT22;48641;51.676;5.808;2023-11-19T06:52:55;14.70;69.20
62583;DHT22;48641;51.676;5.808;2023-11-19T06:55:21;14.80;69.30
62583;DHT22;48641;51.676;5.808;2023-11-19T06:57:47;14.70;69.10
62583;DHT22;48641;51.676;5.808;2023-11-19T07:00:12;14.70;69.00
62583;DHT22;48641;51.676;5.808;2023-11-19T07:02:38;14.80;69.00
62583;DHT22;48641;51.676;5.808;2023-11-19T07:05:05;14.80;69.00
62583;DHT22;48641;51.676;5.808;2023-11-19T07:07:31;14.70;69.00
62583;DHT22;48641;51.676;5.808;2023-11-19T07:09:58;14.70;69.00
62583;DHT22;48641;51.676;5.808;2023-11-19T07:12:23;14.80;68.90
62583;DHT22;48641;51.676;5.808;2023-11-19T07:14:52;14.70;69.00
62583;DHT22;48641;51.676;5.808;2023-11-19T07:17:18;14.70;69.00
62583;DHT22;48641;51.676;5.808;2023-11-19T07:19:46;14.80;69.00
62583;DHT22;48641;51.676;5.808;2023-11-19T07:22:11;14.80;69.10
62583;DHT22;48641;51.676;5.808;2023-11-19T07:24:39;14.80;69.10
62583;DHT22;48641;51.676;5.808;2023-11-19T07:27:05;14.80;69.10
62583;DHT22;48641;51.676;5.808;2023-11-19T07:29:32;14.80;69.10
62583;DHT22;48641;51.676;5.808;2023-11-19T07:31:57;14.80;69.10
62583;DHT22;48641;51.676;5.808;2023-11-19T07:34:23;14.70;69.20
62583;DHT22;48641;51.676;5.808;2023-11-19T07:36:49;14.70;69.20
62583;DHT22;48641;51.676;5.808;2023-11-19T07:39:15;14.80;69.20
62583;DHT22;48641;51.676;5.808;2023-11-19T07:41:40;14.80;69.10
62583;DHT22;48641;51.676;5.808;2023-11-19T07:44:06;14.70;69.10
62583;DHT22;48641;51.676;5.808;2023-11-19T07:46:32;14.80;69.10
62583;DHT22;48641;51.676;5.808;2023-11-19T07:48:57;14.70;69.10
62583;DHT22;48641;51.676;5.808;2023-11-19T07:51:23;14.80;69.10
62583;DHT22;48641;51.676;5.808;2023-11-19T07:53:48;14.70;69.00
62583;DHT22;48641;51.676;5.808;2023-11-19T07:56:15;14.70;69.00
62583;DHT22;48641;51.676;5.808;2023-11-19T07:58:40;14.70;69.00
62583;DHT22;48641;51.676;5.808;2023-11-19T08:01:06;14.70;69.40
62583;DHT22;48641;51.676;5.808;2023-11-19T08:03:32;14.80;69.00
62583;DHT22;48641;51.676;5.808;2023-11-19T08:05:59;14.70;68.90
62583;DHT22;48641;51.676;5.808;2023-11-19T08:08:25;14.80;69.10
62583;DHT22;48641;51.676;5.808;2023-11-19T08:10:50;14.70;69.00
62583;DHT22;48641;51.676;5.808;2023-11-19T08:13:21;14.70;69.00
62583;DHT22;48641;51.676;5.808;2023-11-19T08:15:47;14.80;69.20
62583;DHT22;48641;51.676;5.808;2023-11-19T08:18:13;14.80;69.30
62583;DHT22;48641;51.676;5.808;2023-11-19T08:20:38;14.80;69.10
62583;DHT22;48641;51.676;5.808;2023-11-19T08:23:04;14.80;69.10
62583;DHT22;48641;51.676;5.808;2023-11-19T08:25:30;14.80;69.40
62583;DHT22;48641;51.676;5.808;2023-11-19T08:27:56;14.80;69.30
62583;DHT22;48641;51.676;5.808;2023-11-19T08:30:21;14.80;69.30
62583;DHT22;48641;51.676;5.808;2023-11-19T08:32:47;14.80;69.30
62583;DHT22;48641;51.676;5.808;2023-11-19T08:35:12;14.80;69.30
62583;DHT22;48641;51.676;5.808;2023-11-19T08:37:38;14.80;69.30
62583;DHT22;48641;51.676;5.808;2023-11-19T08:40:04;14.80;69.30
62583;DHT22;48641;51.676;5.808;2023-11-19T08:42:30;14.80;69.20
62583;DHT22;48641;51.676;5.808;2023-11-19T08:44:56;14.80;69.20
62583;DHT22;48641;51.676;5.808;2023-11-19T08:47:22;14.80;69.30
62583;DHT22;48641;51.676;5.808;2023-11-19T08:49:53;14.80;69.20
62583;DHT22;48641;51.676;5.808;2023-11-19T08:52:18;14.80;69.20
62583;DHT22;48641;51.676;5.808;2023-11-19T08:54:44;14.80;69.10
62583;DHT22;48641;51.676;5.808;2023-11-19T08:57:10;14.80;69.20
62583;DHT22;48641;51.676;5.808;2023-11-19T08:59:35;14.80;69.30
62583;DHT22;48641;51.676;5.808;2023-11-19T09:02:04;14.80;69.20
62583;DHT22;48641;51.676;5.808;2023-11-19T09:04:29;14.80;69.10
62583;DHT22;48641;51.676;5.808;2023-11-19T09:06:57;14.80;69.10
62583;DHT22;48641;51.676;5.808;2023-11-19T09:09:22;14.80;69.10
62583;DHT22;48641;51.676;5.808;2023-11-19T09:11:48;14.80;69.00
62583;DHT22;48641;51.676;5.808;2023-11-19T09:14:13;14.90;69.00
62583;DHT22;48641;51.676;5.808;2023-11-19T09:16:39;14.90;69.00
62583;DHT22;48641;51.676;5.808;2023-11-19T09:19:04;14.80;69.00
62583;DHT22;48641;51.676;5.808;2023-11-19T09:21:30;14.80;69.00
62583;DHT22;48641;51.676;5.808;2023-11-19T09:23:56;14.80;68.90
62583;DHT22;48641;51.676;5.808;2023-11-19T09:26:21;14.80;69.00
62583;DHT22;48641;51.676;5.808;2023-11-19T09:28:47;14.80;69.00
62583;DHT22;48641;51.676;5.808;2023-11-19T09:31:14;14.80;68.90
62583;DHT22;48641;51.676;5.808;2023-11-19T09:33:39;14.80;70.00
62583;DHT22;48641;51.676;5.808;2023-11-19T09:36:05;14.80;69.10
62583;DHT22;48641;51.676;5.808;2023-11-19T09:38:31;14.80;69.10
62583;DHT22;48641;51.676;5.808;2023-11-19T09:40:58;14.80;69.10
62583;DHT22;48641;51.676;5.808;2023-11-19T09:43:26;14.90;69.10
62583;DHT22;48641;51.676;5.808;2023-11-19T09:45:55;14.80;69.00
62583;DHT22;48641;51.676;5.808;2023-11-19T09:48:21;14.80;69.00
62583;DHT22;48641;51.676;5.808;2023-11-19T09:50:50;14.80;69.00
62583;DHT22;48641;51.676;5.808;2023-11-19T09:53:17;14.80;69.00
62583;DHT22;48641;51.676;5.808;2023-11-19T09:55:43;14.90;69.00
62583;DHT22;48641;51.676;5.808;2023-11-19T09:58:09;14.80;69.00
62583;DHT22;48641;51.676;5.808;2023-11-19T10:00:37;14.80;69.00
62583;DHT22;48641;51.676;5.808;2023-11-19T10:03:02;14.90;69.10
62583;DHT22;48641;51.676;5.808;2023-11-19T10:05:30;14.80;69.00
62583;DHT22;48641;51.676;5.808;2023-11-19T10:07:56;14.90;69.00
62583;DHT22;48641;51.676;5.808;2023-11-19T10:10:21;14.80;69.00
62583;DHT22;48641;51.676;5.808;2023-11-19T10:12:50;14.90;69.10
62583;DHT22;48641;51.676;5.808;2023-11-19T10:15:24;14.90;69.00
62583;DHT22;48641;51.676;5.808;2023-11-19T10:17:59;14.90;69.10
62583;DHT22;48641;51.676;5.808;2023-11-19T10:20:25;14.90;69.10
62583;DHT22;48641;51.676;5.808;2023-11-19T10:22:54;14.90;69.10
62583;DHT22;48641;51.676;5.808;2023-11-19T10:25:30;14.90;69.20
62583;DHT22;48641;51.676;5.808;2023-11-19T10:27:56;14.90;69.10
62583;DHT22;48641;51.676;5.808;2023-11-19T10:30:23;14.90;69.10
62583;DHT22;48641;51.676;5.808;2023-11-19T10:33:10;14.90;69.10
62583;DHT22;48641;51.676;5.808;2023-11-19T10:35:51;14.90;69.00
62583;DHT22;48641;51.676;5.808;2023-11-19T10:38:18;15.00;69.10
62583;DHT22;48641;51.676;5.808;2023-11-19T10:40:44;14.90;69.00
62583;DHT22;48641;51.676;5.808;2023-11-19T10:43:09;14.90;69.00
62583;DHT22;48641;51.676;5.808;2023-11-19T10:45:36;14.90;69.10
62583;DHT22;48641;51.676;5.808;2023-11-19T10:48:03;14.90;69.00
62583;DHT22;48641;51.676;5.808;2023-11-19T10:50:43;14.90;69.10
62583;DHT22;48641;51.676;5.808;2023-11-19T10:53:11;15.00;69.00
62583;DHT22;48641;51.676;5.808;2023-11-19T10:55:38;14.90;70.10
62583;DHT22;48641;51.676;5.808;2023-11-19T10:58:05;15.00;69.10
62583;DHT22;48641;51.676;5.808;2023-11-19T11:00:39;15.00;70.00
62583;DHT22;48641;51.676;5.808;2023-11-19T11:03:17;15.00;69.00
62583;DHT22;48641;51.676;5.808;2023-11-19T11:05:46;15.10;69.00
62583;DHT22;48641;51.676;5.808;2023-11-19T11:08:12;15.10;69.00
62583;DHT22;48641;51.676;5.808;2023-11-19T11:11:04;15.10;68.90
62583;DHT22;48641;51.676;5.808;2023-11-19T11:13:32;15.10;69.10
62583;DHT22;48641;51.676;5.808;2023-11-19T11:15:59;15.10;69.00
62583;DHT22;48641;51.676;5.808;2023-11-19T11:18:26;15.10;69.00
62583;DHT22;48641;51.676;5.808;2023-11-19T11:21:08;15.10;68.90
62583;DHT22;48641;51.676;5.808;2023-11-19T11:24:00;15.10;69.00
62583;DHT22;48641;51.676;5.808;2023-11-19T11:37:04;15.20;68.90
62583;DHT22;48641;51.676;5.808;2023-11-19T11:39:32;15.10;68.70
62583;DHT22;48641;51.676;5.808;2023-11-19T11:45:07;15.10;68.70
62583;DHT22;48641;51.676;5.808;2023-11-19T11:50:09;15.10;68.80
62583;DHT22;48641;51.676;5.808;2023-11-19T11:58:17;15.10;68.80
62583;DHT22;48641;51.676;5.808;2023-11-19T12:00:43;15.10;68.90
62583;DHT22;48641;51.676;5.808;2023-11-19T12:03:11;15.10;69.00
62583;DHT22;48641;51.676;5.808;2023-11-19T12:05:44;15.10;69.00
62583;DHT22;48641;51.676;5.808;2023-11-19T12:08:11;15.10;69.10
62583;DHT22;48641;51.676;5.808;2023-11-19T12:10:53;15.10;69.20
62583;DHT22;48641;51.676;5.808;2023-11-19T12:13:21;15.10;69.20
62583;DHT22;48641;51.676;5.808;2023-11-19T12:18:24;15.20;69.20
62583;DHT22;48641;51.676;5.808;2023-11-19T12:20:51;15.10;69.10
62583;DHT22;48641;51.676;5.808;2023-11-19T12:23:17;15.10;69.20
62583;DHT22;48641;51.676;5.808;2023-11-19T12:25:42;15.10;69.20
62583;DHT22;48641;51.676;5.808;2023-11-19T12:28:13;15.10;69.30
62583;DHT22;48641;51.676;5.808;2023-11-19T12:30:40;15.10;69.20
62583;DHT22;48641;51.676;5.808;2023-11-19T12:33:09;15.10;69.30
62583;DHT22;48641;51.676;5.808;2023-11-19T12:35:39;15.10;69.20
62583;DHT22;48641;51.676;5.808;2023-11-19T12:38:05;15.20;69.30
62583;DHT22;48641;51.676;5.808;2023-11-19T12:40:31;15.10;69.30
62583;DHT22;48641;51.676;5.808;2023-11-19T12:42:57;15.10;69.10
62583;DHT22;48641;51.676;5.808;2023-11-19T12:45:23;15.10;69.10
62583;DHT22;48641;51.676;5.808;2023-11-19T12:48:08;15.10;69.00
62583;DHT22;48641;51.676;5.808;2023-11-19T12:51:04;15.10;69.00
62583;DHT22;48641;51.676;5.808;2023-11-19T12:53:50;15.10;69.00
62583;DHT22;48641;51.676;5.808;2023-11-19T12:56:19;15.10;69.10
62583;DHT22;48641;51.676;5.808;2023-11-19T12:58:45;15.10;69.30
62583;DHT22;48641;51.676;5.808;2023-11-19T13:01:18;15.10;69.40
62583;DHT22;48641;51.676;5.808;2023-11-19T13:03:45;15.10;69.50
62583;DHT22;48641;51.676;5.808;2023-11-19T13:06:12;15.10;69.40
62583;DHT22;48641;51.676;5.808;2023-11-19T13:08:49;15.10;69.30
62583;DHT22;48641;51.676;5.808;2023-11-19T13:11:33;15.10;69.70
62583;DHT22;48641;51.676;5.808;2023-11-19T13:14:01;15.10;69.60
62583;DHT22;48641;51.676;5.808;2023-11-19T13:16:28;15.10;69.40
62583;DHT22;48641;51.676;5.808;2023-11-19T13:18:54;15.10;69.30
62583;DHT22;48641;51.676;5.808;2023-11-19T13:21:22;15.10;69.30
62583;DHT22;48641;51.676;5.808;2023-11-19T13:23:48;15.10;69.30
62583;DHT22;48641;51.676;5.808;2023-11-19T13:26:14;15.20;69.40
62583;DHT22;48641;51.676;5.808;2023-11-19T13:28:39;15.20;69.50
62583;DHT22;48641;51.676;5.808;2023-11-19T13:31:05;15.20;69.40
62583;DHT22;48641;51.676;5.808;2023-11-19T13:33:31;15.20;69.50
62583;DHT22;48641;51.676;5.808;2023-11-19T13:35:57;15.20;69.60
62583;DHT22;48641;51.676;5.808;2023-11-19T13:38:22;15.20;69.70
62583;DHT22;48641;51.676;5.808;2023-11-19T13:40:51;15.20;69.60
62583;DHT22;48641;51.676;5.808;2023-11-19T13:43:17;15.20;69.60
62583;DHT22;48641;51.676;5.808;2023-11-19T13:45:42;15.20;69.60
62583;DHT22;48641;51.676;5.808;2023-11-19T13:48:08;15.20;69.60
62583;DHT22;48641;51.676;5.808;2023-11-19T13:50:34;15.20;69.70
62583;DHT22;48641;51.676;5.808;2023-11-19T13:53:00;15.20;69.70
62583;DHT22;48641;51.676;5.808;2023-11-19T13:55:26;15.20;69.70
62583;DHT22;48641;51.676;5.808;2023-11-19T13:57:51;15.20;69.80
62583;DHT22;48641;51.676;5.808;2023-11-19T14:00:17;15.20;69.70
62583;DHT22;48641;51.676;5.808;2023-11-19T14:02:47;15.20;69.60
62583;DHT22;48641;51.676;5.808;2023-11-19T14:05:14;15.20;69.60
62583;DHT22;48641;51.676;5.808;2023-11-19T14:07:41;15.20;69.70
62583;DHT22;48641;51.676;5.808;2023-11-19T14:10:07;15.20;69.70
62583;DHT22;48641;51.676;5.808;2023-11-19T14:12:39;15.20;69.70
62583;DHT22;48641;51.676;5.808;2023-11-19T14:15:09;15.20;69.70
62583;DHT22;48641;51.676;5.808;2023-11-19T14:17:36;15.20;69.70
62583;DHT22;48641;51.676;5.808;2023-11-19T14:20:02;15.20;69.70
62583;DHT22;48641;51.676;5.808;2023-11-19T14:22:30;15.20;69.70
62583;DHT22;48641;51.676;5.808;2023-11-19T14:24:56;15.20;69.70
62583;DHT22;48641;51.676;5.808;2023-11-19T14:27:21;15.20;69.70
62583;DHT22;48641;51.676;5.808;2023-11-19T14:29:47;15.20;69.70
62583;DHT22;48641;51.676;5.808;2023-11-19T14:32:13;15.20;69.70
62583;DHT22;48641;51.676;5.808;2023-11-19T14:34:39;15.20;69.70
62583;DHT22;48641;51.676;5.808;2023-11-19T14:37:04;15.20;69.70
62583;DHT22;48641;51.676;5.808;2023-11-19T14:39:30;15.20;69.80
62583;DHT22;48641;51.676;5.808;2023-11-19T14:41:57;15.20;70.80
62583;DHT22;48641;51.676;5.808;2023-11-19T14:44:26;15.20;69.90
62583;DHT22;48641;51.676;5.808;2023-11-19T14:46:52;15.20;69.90
62583;DHT22;48641;51.676;5.808;2023-11-19T14:49:18;15.20;69.90
62583;DHT22;48641;51.676;5.808;2023-11-19T14:51:43;15.20;70.00
62583;DHT22;48641;51.676;5.808;2023-11-19T14:54:09;15.20;69.90
62583;DHT22;48641;51.676;5.808;2023-11-19T14:56:35;15.20;69.80
62583;DHT22;48641;51.676;5.808;2023-11-19T14:59:00;15.20;69.70
62583;DHT22;48641;51.676;5.808;2023-11-19T15:01:26;15.20;69.70
62583;DHT22;48641;51.676;5.808;2023-11-19T15:03:54;15.20;69.70
62583;DHT22;48641;51.676;5.808;2023-11-19T15:06:23;15.20;69.70
62583;DHT22;48641;51.676;5.808;2023-11-19T15:08:49;15.20;69.70
62583;DHT22;48641;51.676;5.808;2023-11-19T15:11:14;15.20;69.70
62583;DHT22;48641;51.676;5.808;2023-11-19T15:13:40;15.20;69.70
62583;DHT22;48641;51.676;5.808;2023-11-19T15:16:07;15.20;69.70
62583;DHT22;48641;51.676;5.808;2023-11-19T15:18:36;15.10;69.70
62583;DHT22;48641;51.676;5.808;2023-11-19T15:21:01;15.20;69.70
62583;DHT22;48641;51.676;5.808;2023-11-19T15:23:27;15.20;69.70
62583;DHT22;48641;51.676;5.808;2023-11-19T15:25:54;15.20;69.80
62583;DHT22;48641;51.676;5.808;2023-11-19T15:28:20;15.10;69.70
62583;DHT22;48641;51.676;5.808;2023-11-19T15:30:47;15.20;69.80
62583;DHT22;48641;51.676;5.808;2023-11-19T15:33:12;15.20;69.90
62583;DHT22;48641;51.676;5.808;2023-11-19T15:35:38;15.20;69.80
62583;DHT22;48641;51.676;5.808;2023-11-19T15:38:04;15.20;70.00
62583;DHT22;48641;51.676;5.808;2023-11-19T15:40:32;15.20;69.80
62583;DHT22;48641;51.676;5.808;2023-11-19T15:42:57;15.20;69.70
62583;DHT22;48641;51.676;5.808;2023-11-19T15:45:24;15.10;69.70
62583;DHT22;48641;51.676;5.808;2023-11-19T15:47:49;15.20;69.70
62583;DHT22;48641;51.676;5.808;2023-11-19T15:50:15;15.20;70.30
62583;DHT22;48641;51.676;5.808;2023-11-19T15:52:41;15.20;70.30
62583;DHT22;48641;51.676;5.808;2023-11-19T15:55:09;15.20;70.10